Time;durP1;ratioP1;P1;durP2;ratioP2;P2;SDS_P1;SDS_P2;PMS_P1;PMS_P2;Temp;Humidity;BMP_temperature;BMP_pressure;BME280_temperature;BME280_humidity;BME280_pressure;Samples;Min_cycle;Max_cycle;Signal;HPM_P1;HPM_P2
2021/04/29 00:00:37;;;;;;;5.57;2.93;;;;;;;;;;5011896;28;20443;-82
2021/04/29 00:03:04;;;;;;;2.63;2.40;;;;;;;;;;5013261;28;20461;-81
2021/04/29 00:05:31;;;;;;;3.70;2.53;;;;;;;;;;5013570;28;20435;-79
2021/04/29 00:07:58;;;;;;;3.03;2.73;;;;;;;;;;5012468;28;20487;-79
2021/04/29 00:10:27;;;;;;;4.73;3.10;;;;;;;;;;5013687;28;20455;-79
2021/04/29 00:12:54;;;;;;;4.63;2.80;;;;;;;;;;5008127;28;20443;-80
2021/04/29 00:15:22;;;;;;;5.93;3.00;;;;;;;;;;5008757;28;20932;-80
2021/04/29 00:17:49;;;;;;;3.03;2.70;;;;;;;;;;5011617;28;20469;-81
2021/04/29 00:20:17;;;;;;;5.70;2.90;;;;;;;;;;5010778;28;20447;-83
2021/04/29 00:22:44;;;;;;;3.43;2.73;;;;;;;;;;4994120;28;20447;-82
2021/04/29 00:25:11;;;;;;;2.90;2.60;;;;;;;;;;5012460;28;20811;-77
2021/04/29 00:27:38;;;;;;;3.07;2.77;;;;;;;;;;4995755;28;20517;-80
2021/04/29 00:30:07;;;;;;;4.40;2.73;;;;;;;;;;5013494;28;20451;-79
2021/04/29 00:32:35;;;;;;;4.13;2.80;;;;;;;;;;5013319;28;20869;-80
2021/04/29 00:35:02;;;;;;;4.10;2.67;;;;;;;;;;5009050;28;20431;-79
2021/04/29 00:37:29;;;;;;;3.17;2.40;;;;;;;;;;5008085;28;20431;-78
2021/04/29 00:39:55;;;;;;;6.83;2.90;;;;;;;;;;5010498;28;20544;-79
2021/04/29 00:42:22;;;;;;;4.10;3.30;;;;;;;;;;5010879;28;20447;-78
2021/04/29 00:44:49;;;;;;;3.07;2.30;;;;;;;;;;5011186;28;20501;-77
2021/04/29 00:47:16;;;;;;;4.83;2.60;;;;;;;;;;5011396;28;20490;-82
2021/04/29 00:49:44;;;;;;;7.23;2.77;;;;;;;;;;4995576;28;20493;-77
2021/04/29 00:52:11;;;;;;;2.40;2.00;;;;;;;;;;5012547;28;20517;-78
2021/04/29 00:54:38;;;;;;;5.03;2.17;;;;;;;;;;5012319;28;20455;-79
2021/04/29 00:57:05;;;;;;;4.30;2.53;;;;;;;;;;5010053;28;20439;-77
2021/04/29 00:59:32;;;;;;;2.93;2.70;;;;;;;;;;5007176;28;20459;-78
2021/04/29 01:02:01;;;;;;;4.70;2.57;;;;;;;;;;5009703;28;20538;-78
2021/04/29 01:04:29;;;;;;;6.20;2.80;;;;;;;;;;4993164;28;20449;-78
2021/04/29 01:06:59;;;;;;;3.57;2.87;;;;;;;;;;5010035;28;20490;-77
2021/04/29 01:09:28;;;;;;;2.80;2.60;;;;;;;;;;5010670;28;20565;-76
2021/04/29 01:12:03;;;;;;;4.67;2.80;;;;;;;;;;5012587;28;20474;-78
2021/04/29 01:14:30;;;;;;;6.07;2.67;;;;;;;;;;5012274;28;20504;-79
2021/04/29 01:16:58;;;;;;;4.70;2.90;;;;;;;;;;5012353;28;20457;-78
2021/04/29 01:19:31;;;;;;;3.03;2.73;;;;;;;;;;5009995;28;20451;-78
2021/04/29 01:22:02;;;;;;;3.27;2.80;;;;;;;;;;5007193;28;20492;-77
2021/04/29 01:24:30;;;;;;;3.90;2.60;;;;;;;;;;5010350;28;20451;-79
2021/04/29 01:27:01;;;;;;;4.13;2.70;;;;;;;;;;5014901;28;20902;-78
2021/04/29 01:29:30;;;;;;;3.00;2.53;;;;;;;;;;5010612;28;20459;-80
2021/04/29 01:31:57;;;;;;;4.10;2.90;;;;;;;;;;5010562;28;20450;-79
2021/04/29 01:34:24;;;;;;;4.37;3.00;;;;;;;;;;5012176;28;20529;-76
2021/04/29 01:36:52;;;;;;;4.53;2.43;;;;;;;;;;5012846;28;20443;-76
2021/04/29 01:39:20;;;;;;;5.40;3.30;;;;;;;;;;4994834;28;20469;-80
2021/04/29 01:41:48;;;;;;;4.50;3.50;;;;;;;;;;5010465;28;20443;-79
2021/04/29 01:44:16;;;;;;;4.60;3.37;;;;;;;;;;5006237;28;20592;-78
2021/04/29 01:46:44;;;;;;;4.60;3.57;;;;;;;;;;5007689;28;20780;-80
2021/04/29 01:49:11;;;;;;;4.20;3.77;;;;;;;;;;4992677;28;20918;-76
2021/04/29 01:51:39;;;;;;;6.03;3.60;;;;;;;;;;4992321;28;21006;-77
2021/04/29 01:54:07;;;;;;;4.90;3.87;;;;;;;;;;5010091;28;20446;-76
2021/04/29 01:56:34;;;;;;;5.10;3.70;;;;;;;;;;5011242;28;20960;-76
2021/04/29 01:59:01;;;;;;;4.00;2.77;;;;;;;;;;5011792;28;20542;-79
2021/04/29 02:01:29;;;;;;;3.67;3.27;;;;;;;;;;5009648;28;20451;-78
2021/04/29 02:03:56;;;;;;;5.40;3.60;;;;;;;;;;5004734;28;22116;-78
2021/04/29 02:06:23;;;;;;;4.20;3.47;;;;;;;;;;5007604;28;20447;-82
2021/04/29 02:08:50;;;;;;;5.50;3.60;;;;;;;;;;5007338;28;20479;-78
2021/04/29 02:11:17;;;;;;;4.20;3.57;;;;;;;;;;5009640;28;20445;-80
2021/04/29 02:13:44;;;;;;;3.90;3.30;;;;;;;;;;4991386;28;20442;-78
2021/04/29 02:16:13;;;;;;;5.50;3.60;;;;;;;;;;5006155;28;20461;-77
2021/04/29 02:18:45;;;;;;;4.93;3.83;;;;;;;;;;5006651;28;20940;-81
2021/04/29 02:21:15;;;;;;;4.43;3.93;;;;;;;;;;5009386;28;20488;-77
2021/04/29 02:23:43;;;;;;;8.13;4.20;;;;;;;;;;5008584;28;20451;-79
2021/04/29 02:26:09;;;;;;;5.50;3.90;;;;;;;;;;5008180;28;20457;-77
2021/04/29 02:28:37;;;;;;;4.80;3.50;;;;;;;;;;5009583;28;20496;-77
2021/04/29 02:31:04;;;;;;;7.40;4.00;;;;;;;;;;5008340;28;20939;-79
2021/04/29 02:33:32;;;;;;;4.57;3.60;;;;;;;;;;4992402;28;20578;-79
2021/04/29 02:36:00;;;;;;;3.83;3.37;;;;;;;;;;5013553;28;20453;-78
2021/04/29 02:38:28;;;;;;;4.33;3.60;;;;;;;;;;4980171;28;20554;-79
2021/04/29 02:40:55;;;;;;;7.07;3.53;;;;;;;;;;4992417;28;20534;-81
2021/04/29 02:43:22;;;;;;;4.40;3.47;;;;;;;;;;5004315;28;20832;-77
2021/04/29 02:45:48;;;;;;;6.33;4.20;;;;;;;;;;5010876;28;20439;-78
2021/04/29 02:48:16;;;;;;;5.30;4.80;;;;;;;;;;5009986;28;20482;-79
2021/04/29 02:50:44;;;;;;;8.20;4.13;;;;;;;;;;4995432;28;20944;-77
2021/04/29 02:53:13;;;;;;;4.80;4.30;;;;;;;;;;5012371;28;20435;-78
2021/04/29 02:55:39;;;;;;;6.53;4.30;;;;;;;;;;5012839;28;20447;-76
2021/04/29 02:58:07;;;;;;;5.90;4.50;;;;;;;;;;5013625;28;20497;-75
2021/04/29 03:00:34;;;;;;;6.80;3.90;;;;;;;;;;5011972;28;20435;-78
2021/04/29 03:03:01;;;;;;;5.37;4.23;;;;;;;;;;5009403;28;20450;-77
2021/04/29 03:05:28;;;;;;;7.30;4.60;;;;;;;;;;5012090;28;20450;-81
2021/04/29 03:07:55;;;;;;;8.53;4.17;;;;;;;;;;5011971;28;20495;-75
2021/04/29 03:10:23;;;;;;;4.73;4.23;;;;;;;;;;4995415;28;20493;-77
2021/04/29 03:12:50;;;;;;;5.13;4.60;;;;;;;;;;5013163;28;20495;-78
2021/04/29 03:15:17;;;;;;;7.00;5.20;;;;;;;;;;5014630;28;20451;-79
2021/04/29 03:17:44;;;;;;;6.43;5.27;;;;;;;;;;4997009;28;20458;-76
2021/04/29 03:20:12;;;;;;;6.03;5.30;;;;;;;;;;5014136;28;20447;-76
2021/04/29 03:22:38;;;;;;;6.10;5.37;;;;;;;;;;4995497;28;20871;-77
2021/04/29 03:25:06;;;;;;;5.97;5.37;;;;;;;;;;5009286;28;20760;-75
2021/04/29 03:27:33;;;;;;;6.67;5.13;;;;;;;;;;5010622;28;20482;-77
2021/04/29 03:30:00;;;;;;;8.33;5.50;;;;;;;;;;5012445;28;20447;-78
2021/04/29 03:32:27;;;;;;;6.70;5.13;;;;;;;;;;5011887;28;20462;-78
2021/04/29 03:34:54;;;;;;;7.67;5.53;;;;;;;;;;5012606;28;20921;-77
2021/04/29 03:37:21;;;;;;;6.20;5.13;;;;;;;;;;5013815;28;20447;-75
2021/04/29 03:39:48;;;;;;;7.70;6.43;;;;;;;;;;5014454;28;20466;-77
2021/04/29 03:42:14;;;;;;;9.20;7.20;;;;;;;;;;5014154;28;20481;-78
2021/04/29 03:44:42;;;;;;;8.30;6.83;;;;;;;;;;5014297;28;20947;-76
2021/04/29 03:47:09;;;;;;;14.20;8.80;;;;;;;;;;5008420;28;20454;-76
2021/04/29 03:49:35;;;;;;;10.73;7.17;;;;;;;;;;5009373;28;20427;-75
2021/04/29 03:52:02;;;;;;;7.70;6.10;;;;;;;;;;5012055;28;20443;-77
2021/04/29 03:54:29;;;;;;;9.77;7.43;;;;;;;;;;4994355;28;20446;-77
2021/04/29 03:56:56;;;;;;;9.47;7.73;;;;;;;;;;5011787;28;20530;-81
2021/04/29 03:59:23;;;;;;;13.83;9.30;;;;;;;;;;4991974;28;20480;-78
2021/04/29 04:01:51;;;;;;;10.13;7.07;;;;;;;;;;5006023;28;20447;-77
2021/04/29 04:04:18;;;;;;;8.63;6.70;;;;;;;;;;5013716;28;20442;-76
2021/04/29 04:06:45;;;;;;;8.60;6.67;;;;;;;;;;5013958;28;20841;-78
2021/04/29 04:09:11;;;;;;;8.50;6.43;;;;;;;;;;5009647;28;20569;-76
2021/04/29 04:11:38;;;;;;;8.13;6.60;;;;;;;;;;5008747;28;20446;-79
2021/04/29 04:14:05;;;;;;;7.53;6.60;;;;;;;;;;5011359;28;20463;-76
2021/04/29 04:16:32;;;;;;;10.10;6.87;;;;;;;;;;5011649;28;20841;-79
2021/04/29 04:19:00;;;;;;;11.63;6.77;;;;;;;;;;5012513;28;20470;-77
2021/04/29 04:21:27;;;;;;;8.37;7.43;;;;;;;;;;4992094;28;20454;-80
2021/04/29 04:23:55;;;;;;;8.53;7.63;;;;;;;;;;4994689;28;20925;-77
2021/04/29 04:26:22;;;;;;;8.17;6.80;;;;;;;;;;4994786;28;20448;-79
2021/04/29 04:28:49;;;;;;;11.50;8.03;;;;;;;;;;4994480;28;20495;-80
2021/04/29 04:31:16;;;;;;;12.00;7.27;;;;;;;;;;5010730;28;20454;-77
2021/04/29 04:33:43;;;;;;;12.30;9.53;;;;;;;;;;5007821;28;20439;-79
2021/04/29 04:36:10;;;;;;;12.03;8.97;;;;;;;;;;5010042;28;20447;-77
2021/04/29 04:38:37;;;;;;;14.20;9.33;;;;;;;;;;5010074;28;20474;-78
2021/04/29 04:41:04;;;;;;;13.17;9.80;;;;;;;;;;5010623;28;20490;-78
2021/04/29 04:43:31;;;;;;;11.30;9.03;;;;;;;;;;5010760;28;20940;-79
2021/04/29 04:45:57;;;;;;;12.73;9.80;;;;;;;;;;5007028;28;20435;-78
2021/04/29 04:48:24;;;;;;;15.33;10.30;;;;;;;;;;5008301;28;20497;-77
2021/04/29 04:50:51;;;;;;;13.73;9.90;;;;;;;;;;5011028;28;20449;-76
2021/04/29 04:53:20;;;;;;;14.17;9.30;;;;;;;;;;5009666;28;20943;-81
2021/04/29 04:55:49;;;;;;;12.87;10.03;;;;;;;;;;5010553;28;20444;-85
2021/04/29 04:58:16;;;;;;;13.23;9.27;;;;;;;;;;5011389;28;20540;-78
2021/04/29 05:00:43;;;;;;;15.80;10.50;;;;;;;;;;5012205;28;20557;-80
2021/04/29 05:03:10;;;;;;;10.73;9.23;;;;;;;;;;5012779;28;20454;-81
2021/04/29 05:05:36;;;;;;;14.33;11.20;;;;;;;;;;4999592;28;20444;-79
2021/04/29 05:08:03;;;;;;;11.80;9.10;;;;;;;;;;5005370;28;20510;-81
2021/04/29 05:10:31;;;;;;;14.40;9.40;;;;;;;;;;5007408;28;20443;-79
2021/04/29 05:13:00;;;;;;;14.23;10.87;;;;;;;;;;5009366;28;20447;-78
2021/04/29 05:15:27;;;;;;;11.03;9.57;;;;;;;;;;5010601;28;20455;-80
2021/04/29 05:17:53;;;;;;;13.13;10.27;;;;;;;;;;5010392;28;20932;-85
2021/04/29 05:20:20;;;;;;;12.40;10.00;;;;;;;;;;5011630;28;20447;-81
2021/04/29 05:22:47;;;;;;;12.77;10.70;;;;;;;;;;5015831;28;20449;-80
2021/04/29 05:25:14;;;;;;;12.87;10.30;;;;;;;;;;5014390;28;20955;-79
2021/04/29 05:27:42;;;;;;;13.37;10.97;;;;;;;;;;5011192;28;20648;-78
2021/04/29 05:30:09;;;;;;;11.37;9.20;;;;;;;;;;5010605;28;20431;-80
2021/04/29 05:32:36;;;;;;;11.87;9.80;;;;;;;;;;4987825;28;20438;-79
2021/04/29 05:35:03;;;;;;;13.00;10.40;;;;;;;;;;5008801;28;20493;-77
2021/04/29 05:37:29;;;;;;;11.80;9.70;;;;;;;;;;5008898;28;20870;-84
2021/04/29 05:39:56;;;;;;;12.40;9.40;;;;;;;;;;5007969;28;20812;-81
2021/04/29 05:42:23;;;;;;;11.37;9.50;;;;;;;;;;5010826;28;20920;-79
2021/04/29 05:44:54;;;;;;;12.50;9.87;;;;;;;;;;5011108;28;20470;-81
2021/04/29 05:47:21;;;;;;;12.30;8.87;;;;;;;;;;5011364;28;20489;-81
2021/04/29 05:49:47;;;;;;;12.07;10.37;;;;;;;;;;5011381;28;20446;-79
2021/04/29 05:52:15;;;;;;;10.77;8.87;;;;;;;;;;5010327;28;20561;-83
2021/04/29 05:54:42;;;;;;;13.30;10.70;;;;;;;;;;5005937;28;20435;-81
2021/04/29 05:57:08;;;;;;;13.10;10.07;;;;;;;;;;5006399;28;20443;-82
2021/04/29 05:59:35;;;;;;;16.43;11.10;;;;;;;;;;5009474;28;20456;-80
2021/04/29 06:02:03;;;;;;;12.73;10.57;;;;;;;;;;5008908;28;20443;-82
2021/04/29 06:04:30;;;;;;;14.30;10.97;;;;;;;;;;5010163;28;20799;-82
2021/04/29 06:06:57;;;;;;;13.77;10.87;;;;;;;;;;5009411;28;20796;-80
2021/04/29 06:09:24;;;;;;;11.53;9.77;;;;;;;;;;5009942;28;20813;-81
2021/04/29 06:11:50;;;;;;;12.30;10.57;;;;;;;;;;5005538;28;20443;-80
2021/04/29 06:14:17;;;;;;;13.90;11.00;;;;;;;;;;5007172;28;21243;-81
2021/04/29 06:16:44;;;;;;;12.23;10.17;;;;;;;;;;5008834;28;20443;-79
2021/04/29 06:19:12;;;;;;;14.33;11.73;;;;;;;;;;5008855;28;20455;-81
2021/04/29 06:21:38;;;;;;;13.90;10.30;;;;;;;;;;5008561;28;20443;-80
2021/04/29 06:24:06;;;;;;;14.13;10.40;;;;;;;;;;5010982;28;20524;-80
2021/04/29 06:26:33;;;;;;;17.10;11.27;;;;;;;;;;5011151;28;20529;-82
2021/04/29 06:29:00;;;;;;;13.60;10.10;;;;;;;;;;5011061;28;20498;-81
2021/04/29 06:31:26;;;;;;;15.10;10.77;;;;;;;;;;5007881;28;20970;-79
2021/04/29 06:33:53;;;;;;;17.67;10.77;;;;;;;;;;5005613;28;20556;-82
2021/04/29 06:36:21;;;;;;;21.40;12.23;;;;;;;;;;5008365;28;20445;-81
2021/04/29 06:38:48;;;;;;;16.37;12.20;;;;;;;;;;5009077;28;20459;-82
2021/04/29 06:41:15;;;;;;;15.47;12.30;;;;;;;;;;5008435;28;20465;-80
2021/04/29 06:43:41;;;;;;;15.33;11.93;;;;;;;;;;5011545;28;20547;-81
2021/04/29 06:46:10;;;;;;;16.23;13.50;;;;;;;;;;5015905;28;20446;-79
2021/04/29 06:48:37;;;;;;;16.23;13.70;;;;;;;;;;5011583;28;20486;-81
2021/04/29 06:51:05;;;;;;;17.13;12.40;;;;;;;;;;5011473;28;20525;-82
2021/04/29 06:53:32;;;;;;;14.73;12.30;;;;;;;;;;5010679;28;20984;-80
2021/04/29 06:55:59;;;;;;;16.63;14.80;;;;;;;;;;5005256;28;20474;-83
2021/04/29 06:58:27;;;;;;;15.57;13.17;;;;;;;;;;5006631;28;20462;-79
2021/04/29 07:00:54;;;;;;;16.10;14.40;;;;;;;;;;5009269;28;20434;-83
2021/04/29 07:03:21;;;;;;;14.97;13.37;;;;;;;;;;5008174;28;20443;-78
2021/04/29 07:05:48;;;;;;;18.10;13.80;;;;;;;;;;5008908;28;20439;-80
2021/04/29 07:08:15;;;;;;;20.53;15.33;;;;;;;;;;5008780;28;20552;-80
2021/04/29 07:10:42;;;;;;;19.70;14.20;;;;;;;;;;5004615;28;20414;-81
2021/04/29 07:13:09;;;;;;;23.53;15.27;;;;;;;;;;5006469;28;21106;-80
2021/04/29 07:15:36;;;;;;;20.90;16.80;;;;;;;;;;5008231;28;20456;-79
2021/04/29 07:18:04;;;;;;;22.90;16.87;;;;;;;;;;5011263;28;20541;-78
2021/04/29 07:20:33;;;;;;;20.40;17.43;;;;;;;;;;5012370;28;20431;-79
2021/04/29 07:23:00;;;;;;;22.70;18.60;;;;;;;;;;5010258;28;20417;-79
2021/04/29 07:25:27;;;;;;;21.50;19.10;;;;;;;;;;5008762;28;20443;-78
2021/04/29 07:27:55;;;;;;;23.50;18.70;;;;;;;;;;5011674;28;20498;-80
2021/04/29 07:30:22;;;;;;;22.73;18.97;;;;;;;;;;5012252;28;20449;-78
2021/04/29 07:32:48;;;;;;;21.97;18.37;;;;;;;;;;5012872;28;20424;-82
2021/04/29 07:35:15;;;;;;;24.07;19.40;;;;;;;;;;5013458;28;20455;-79
2021/04/29 07:37:42;;;;;;;23.23;19.03;;;;;;;;;;5013507;28;20455;-79
2021/04/29 07:40:09;;;;;;;23.50;20.57;;;;;;;;;;5013542;28;20414;-76
2021/04/29 07:42:36;;;;;;;23.90;20.37;;;;;;;;;;5013979;28;20439;-79
2021/04/29 07:45:04;;;;;;;25.70;21.10;;;;;;;;;;5013108;28;20410;-79
2021/04/29 07:47:31;;;;;;;28.00;23.23;;;;;;;;;;5008402;28;20481;-80
2021/04/29 07:49:58;;;;;;;29.40;22.00;;;;;;;;;;4991990;28;20504;-78
2021/04/29 07:52:24;;;;;;;29.67;20.10;;;;;;;;;;5011577;28;20446;-77
2021/04/29 07:54:51;;;;;;;21.37;19.07;;;;;;;;;;5012011;28;20812;-77
2021/04/29 07:57:23;;;;;;;27.93;21.83;;;;;;;;;;5012771;28;20462;-80
2021/04/29 07:59:50;;;;;;;26.13;20.97;;;;;;;;;;5013089;28;20459;-80
2021/04/29 08:02:18;;;;;;;26.63;21.00;;;;;;;;;;5014803;28;20545;-78
2021/04/29 08:04:45;;;;;;;26.20;20.10;;;;;;;;;;4998281;28;20462;-78
2021/04/29 08:07:12;;;;;;;32.87;22.87;;;;;;;;;;5014018;28;20439;-79
2021/04/29 08:09:38;;;;;;;28.43;22.20;;;;;;;;;;5007975;28;20485;-82
2021/04/29 08:12:05;;;;;;;32.23;23.70;;;;;;;;;;5008980;28;20443;-78
2021/04/29 08:14:32;;;;;;;38.20;29.77;;;;;;;;;;5010048;28;20442;-79
2021/04/29 08:16:59;;;;;;;38.40;30.67;;;;;;;;;;5010549;28;20435;-78
2021/04/29 08:19:27;;;;;;;37.33;28.97;;;;;;;;;;5011057;28;20493;-78
2021/04/29 08:21:54;;;;;;;37.57;27.77;;;;;;;;;;5011814;28;20454;-78
2021/04/29 08:24:21;;;;;;;41.00;30.00;;;;;;;;;;5013767;28;20530;-79
2021/04/29 08:26:47;;;;;;;40.10;27.10;;;;;;;;;;5013056;28;20454;-77
2021/04/29 08:29:14;;;;;;;31.60;26.67;;;;;;;;;;5012184;28;20490;-79
2021/04/29 08:31:41;;;;;;;36.43;28.30;;;;;;;;;;5004311;28;20462;-77
2021/04/29 08:34:08;;;;;;;37.00;26.17;;;;;;;;;;5004002;28;20413;-77
2021/04/29 08:36:36;;;;;;;33.63;27.30;;;;;;;;;;5010015;28;20475;-80
2021/04/29 08:39:04;;;;;;;29.63;23.50;;;;;;;;;;4993882;28;20483;-77
2021/04/29 08:41:31;;;;;;;32.67;24.57;;;;;;;;;;4977727;28;20443;-78
2021/04/29 08:43:58;;;;;;;27.53;21.90;;;;;;;;;;5011763;28;20465;-77
2021/04/29 08:46:25;;;;;;;28.27;20.83;;;;;;;;;;4998956;28;20510;-76
2021/04/29 08:48:53;;;;;;;27.00;21.63;;;;;;;;;;5012428;28;20461;-77
2021/04/29 08:51:20;;;;;;;28.30;22.07;;;;;;;;;;5013136;28;20429;-79
2021/04/29 08:53:49;;;;;;;29.27;23.40;;;;;;;;;;4992469;28;20522;-77
2021/04/29 08:56:16;;;;;;;31.30;23.50;;;;;;;;;;5006820;28;20443;-78
2021/04/29 08:58:43;;;;;;;31.60;25.13;;;;;;;;;;5009520;28;21133;-78
2021/04/29 09:01:10;;;;;;;30.67;24.30;;;;;;;;;;5010798;28;20478;-80
2021/04/29 09:03:37;;;;;;;30.63;23.03;;;;;;;;;;5010803;28;20447;-78
2021/04/29 09:06:05;;;;;;;28.07;22.67;;;;;;;;;;5011137;28;20455;-79
2021/04/29 09:08:35;;;;;;;35.07;23.93;;;;;;;;;;5011845;28;20487;-78
2021/04/29 09:11:11;;;;;;;31.27;24.60;;;;;;;;;;4984195;28;20552;-80
2021/04/29 09:13:39;;;;;;;29.67;23.90;;;;;;;;;;4994915;28;20454;-78
2021/04/29 09:16:08;;;;;;;29.67;22.13;;;;;;;;;;5009782;28;20853;-80
2021/04/29 09:18:35;;;;;;;24.73;21.17;;;;;;;;;;5006242;28;20469;-78
2021/04/29 09:21:06;;;;;;;29.30;23.73;;;;;;;;;;5008289;28;20439;-80
2021/04/29 09:23:34;;;;;;;24.37;21.00;;;;;;;;;;5010183;28;20455;-79
2021/04/29 09:26:02;;;;;;;32.63;25.87;;;;;;;;;;5009508;28;20948;-81
2021/04/29 09:28:38;;;;;;;31.30;24.03;;;;;;;;;;4992981;28;20494;-78
2021/04/29 09:31:06;;;;;;;29.67;23.80;;;;;;;;;;4976089;28;20844;-80
2021/04/29 09:33:33;;;;;;;27.30;22.37;;;;;;;;;;5005477;28;20435;-80
2021/04/29 09:36:00;;;;;;;31.17;24.47;;;;;;;;;;5007873;28;20534;-81
2021/04/29 09:38:35;;;;;;;37.47;27.97;;;;;;;;;;5010034;28;21053;-80
2021/04/29 09:41:02;;;;;;;30.67;23.73;;;;;;;;;;5009647;28;20443;-79
2021/04/29 09:43:29;;;;;;;35.87;27.60;;;;;;;;;;5010407;28;20426;-78
2021/04/29 09:45:58;;;;;;;34.33;26.83;;;;;;;;;;5011305;28;20968;-78
2021/04/29 09:48:34;;;;;;;35.07;26.73;;;;;;;;;;5011361;28;20931;-80
2021/04/29 09:51:00;;;;;;;39.43;28.43;;;;;;;;;;4993432;28;20417;-80
2021/04/29 09:53:38;;;;;;;36.60;27.00;;;;;;;;;;5011554;28;20527;-79
2021/04/29 09:56:07;;;;;;;34.93;25.20;;;;;;;;;;5006550;28;20466;-81
2021/04/29 09:58:34;;;;;;;33.47;26.17;;;;;;;;;;5006202;28;20456;-79
2021/04/29 10:01:02;;;;;;;29.67;23.57;;;;;;;;;;5009483;28;20464;-77
2021/04/29 10:03:29;;;;;;;28.33;22.40;;;;;;;;;;5009033;28;20443;-78
2021/04/29 10:05:56;;;;;;;32.37;23.27;;;;;;;;;;5010038;28;20521;-78
2021/04/29 10:08:25;;;;;;;37.10;24.40;;;;;;;;;;5010610;28;20548;-79
2021/04/29 10:10:54;;;;;;;28.97;21.90;;;;;;;;;;4994149;28;20409;-78
2021/04/29 10:13:21;;;;;;;28.50;21.50;;;;;;;;;;5011486;28;20421;-79
2021/04/29 10:15:48;;;;;;;26.50;20.23;;;;;;;;;;5011417;28;20940;-79
2021/04/29 10:18:16;;;;;;;26.37;21.20;;;;;;;;;;5007311;28;20442;-78
2021/04/29 10:20:46;;;;;;;25.53;19.67;;;;;;;;;;5005080;28;20435;-79
2021/04/29 10:23:17;;;;;;;24.10;19.40;;;;;;;;;;4992207;28;20852;-79
2021/04/29 10:25:48;;;;;;;23.63;18.70;;;;;;;;;;5008810;28;20421;-80
2021/04/29 10:28:15;;;;;;;23.27;18.90;;;;;;;;;;5005852;28;20511;-78
2021/04/29 10:30:42;;;;;;;20.50;16.40;;;;;;;;;;4998554;28;20545;-80
2021/04/29 10:33:13;;;;;;;25.00;19.00;;;;;;;;;;5011392;28;20445;-77
2021/04/29 10:35:50;;;;;;;32.17;24.50;;;;;;;;;;4993242;28;20908;-78
2021/04/29 10:38:23;;;;;;;33.90;24.60;;;;;;;;;;5010812;28;20462;-78
2021/04/29 10:40:50;;;;;;;32.17;25.47;;;;;;;;;;4990447;28;20426;-81
2021/04/29 10:43:32;;;;;;;34.03;26.83;;;;;;;;;;5005168;28;20922;-80
2021/04/29 10:46:01;;;;;;;31.43;26.20;;;;;;;;;;5008785;28;20508;-81
2021/04/29 10:48:28;;;;;;;36.27;27.77;;;;;;;;;;5008733;28;20537;-77
2021/04/29 10:51:04;;;;;;;31.43;24.73;;;;;;;;;;5008848;28;20520;-80
2021/04/29 10:53:32;;;;;;;37.63;28.80;;;;;;;;;;4993048;28;20440;-80
2021/04/29 10:56:00;;;;;;;40.10;27.30;;;;;;;;;;4995620;28;20543;-79
2021/04/29 10:58:27;;;;;;;33.07;27.37;;;;;;;;;;4995748;28;20558;-77
2021/04/29 11:00:55;;;;;;;34.30;27.63;;;;;;;;;;5012946;28;20453;-77
2021/04/29 11:03:29;;;;;;;29.73;26.03;;;;;;;;;;5013565;28;20431;-77
2021/04/29 11:06:05;;;;;;;32.83;27.03;;;;;;;;;;5009114;28;20552;-78
2021/04/29 11:08:34;;;;;;;32.77;24.83;;;;;;;;;;5011225;28;20465;-80
2021/04/29 11:11:01;;;;;;;23.83;18.33;;;;;;;;;;5012733;28;20953;-78
2021/04/29 11:13:29;;;;;;;19.40;15.70;;;;;;;;;;5012994;28;20505;-79
2021/04/29 11:15:59;;;;;;;20.30;15.27;;;;;;;;;;5013464;28;20449;-78
2021/04/29 11:18:26;;;;;;;19.93;14.27;;;;;;;;;;4997271;28;20483;-80
2021/04/29 11:20:53;;;;;;;15.77;12.87;;;;;;;;;;5014681;28;20526;-78
2021/04/29 11:23:26;;;;;;;14.00;12.00;;;;;;;;;;5014516;28;20533;-79
2021/04/29 11:25:53;;;;;;;13.93;12.37;;;;;;;;;;5013750;28;20439;-81
2021/04/29 11:28:28;;;;;;;13.93;10.53;;;;;;;;;;5008772;28;20483;-78
2021/04/29 11:30:55;;;;;;;12.83;10.57;;;;;;;;;;5010323;28;20450;-78
2021/04/29 11:33:22;;;;;;;21.50;11.93;;;;;;;;;;5012119;28;20832;-79
2021/04/29 11:35:49;;;;;;;20.53;13.17;;;;;;;;;;5012238;28;20447;-78
2021/04/29 11:38:15;;;;;;;16.73;10.50;;;;;;;;;;5012060;28;20450;-78
2021/04/29 11:40:43;;;;;;;13.43;11.07;;;;;;;;;;5013880;28;20458;-78
2021/04/29 11:43:11;;;;;;;13.07;11.17;;;;;;;;;;5014361;28;20443;-78
2021/04/29 11:45:43;;;;;;;12.73;10.63;;;;;;;;;;5014207;28;20955;-78
2021/04/29 11:48:10;;;;;;;12.40;10.37;;;;;;;;;;5013740;28;20544;-78
2021/04/29 11:50:38;;;;;;;17.40;11.17;;;;;;;;;;5008670;28;20832;-77
2021/04/29 11:53:07;;;;;;;15.70;10.50;;;;;;;;;;5009273;28;20541;-78
2021/04/29 11:55:34;;;;;;;12.17;10.57;;;;;;;;;;5011483;28;20431;-79
2021/04/29 11:58:02;;;;;;;13.10;11.10;;;;;;;;;;4994209;28;20461;-78
2021/04/29 12:00:31;;;;;;;12.07;9.70;;;;;;;;;;5011764;28;20424;-78
2021/04/29 12:02:58;;;;;;;11.53;10.20;;;;;;;;;;5008807;28;20535;-77
2021/04/29 12:05:33;;;;;;;10.43;9.27;;;;;;;;;;5007907;28;20461;-78
2021/04/29 12:08:00;;;;;;;11.63;9.70;;;;;;;;;;4993641;28;20585;-77
2021/04/29 12:10:27;;;;;;;12.53;10.13;;;;;;;;;;5011708;28;20439;-80
2021/04/29 12:12:54;;;;;;;12.37;10.30;;;;;;;;;;5011540;28;20442;-78
2021/04/29 12:15:21;;;;;;;9.97;8.97;;;;;;;;;;5012535;28;20469;-79
2021/04/29 12:17:48;;;;;;;9.80;8.80;;;;;;;;;;5013912;28;20469;-77
2021/04/29 12:20:15;;;;;;;11.00;8.80;;;;;;;;;;5013883;28;20539;-78
2021/04/29 12:22:42;;;;;;;13.20;8.97;;;;;;;;;;5013607;28;20457;-76
2021/04/29 12:25:19;;;;;;;11.20;8.27;;;;;;;;;;5010461;28;20530;-79
2021/04/29 12:27:46;;;;;;;15.50;8.50;;;;;;;;;;5008371;28;20806;-79
2021/04/29 12:30:13;;;;;;;8.97;8.17;;;;;;;;;;5010617;28;20447;-78
2021/04/29 12:32:43;;;;;;;18.40;10.10;;;;;;;;;;5011272;28;20890;-80
2021/04/29 12:35:11;;;;;;;11.83;8.40;;;;;;;;;;4994150;28;20470;-78
2021/04/29 12:37:39;;;;;;;15.33;10.03;;;;;;;;;;4990712;28;20490;-78
2021/04/29 12:40:06;;;;;;;13.63;9.43;;;;;;;;;;4993606;28;20459;-79
2021/04/29 12:42:33;;;;;;;19.30;10.17;;;;;;;;;;4993948;28;20502;-79
2021/04/29 12:45:01;;;;;;;10.53;9.13;;;;;;;;;;4993412;28;20526;-79
2021/04/29 12:47:29;;;;;;;9.60;7.70;;;;;;;;;;5002321;28;20435;-78
2021/04/29 12:50:02;;;;;;;10.07;8.53;;;;;;;;;;5007595;28;20490;-79
2021/04/29 12:52:29;;;;;;;8.37;7.40;;;;;;;;;;5010185;28;21031;-78
2021/04/29 12:54:56;;;;;;;11.30;7.53;;;;;;;;;;5010828;28;20826;-81
2021/04/29 12:57:24;;;;;;;7.90;6.83;;;;;;;;;;5011149;28;20450;-78
2021/04/29 12:59:53;;;;;;;8.97;6.10;;;;;;;;;;4994041;28;20443;-79
2021/04/29 13:02:21;;;;;;;8.03;5.83;;;;;;;;;;5012695;28;20530;-78
2021/04/29 13:05:01;;;;;;;7.20;6.50;;;;;;;;;;5012373;28;20455;-77
2021/04/29 13:07:29;;;;;;;6.83;5.10;;;;;;;;;;4995219;28;20438;-78
2021/04/29 13:09:56;;;;;;;7.23;5.93;;;;;;;;;;4990619;28;20547;-77
2021/04/29 13:12:25;;;;;;;7.53;5.63;;;;;;;;;;4989368;28;20439;-78
2021/04/29 13:14:58;;;;;;;8.43;6.70;;;;;;;;;;5009398;28;20439;-77
2021/04/29 13:17:26;;;;;;;6.03;5.43;;;;;;;;;;5010565;28;20873;-78
2021/04/29 13:20:01;;;;;;;8.13;7.33;;;;;;;;;;5011205;28;20442;-78
2021/04/29 13:22:30;;;;;;;12.40;6.60;;;;;;;;;;5011431;28;20461;-79
2021/04/29 13:24:58;;;;;;;9.90;7.20;;;;;;;;;;5012284;28;20766;-77
2021/04/29 13:27:25;;;;;;;7.23;6.53;;;;;;;;;;5012341;28;20538;-79
2021/04/29 13:29:51;;;;;;;11.97;7.70;;;;;;;;;;5012116;28;20585;-78
2021/04/29 13:32:18;;;;;;;12.00;8.00;;;;;;;;;;5007856;28;20950;-77
2021/04/29 13:34:46;;;;;;;9.90;7.93;;;;;;;;;;5007518;28;20436;-78
2021/04/29 13:37:13;;;;;;;8.90;7.40;;;;;;;;;;5009303;28;20524;-79
2021/04/29 13:39:41;;;;;;;9.00;7.63;;;;;;;;;;5009726;28;20447;-78
2021/04/29 13:42:08;;;;;;;9.57;7.23;;;;;;;;;;5010152;28;20513;-76
2021/04/29 13:44:35;;;;;;;8.90;7.20;;;;;;;;;;5010684;28;20447;-79
2021/04/29 13:47:02;;;;;;;9.97;7.07;;;;;;;;;;5012403;28;20836;-79
2021/04/29 13:49:29;;;;;;;9.27;7.70;;;;;;;;;;5012093;28;20918;-78
2021/04/29 13:51:56;;;;;;;9.03;6.67;;;;;;;;;;5012111;28;20440;-78
2021/04/29 13:54:23;;;;;;;10.63;7.00;;;;;;;;;;5007851;28;20444;-77
2021/04/29 13:56:51;;;;;;;9.97;6.50;;;;;;;;;;5007088;28;20936;-78
2021/04/29 13:59:18;;;;;;;11.87;7.67;;;;;;;;;;5008917;28;20870;-78
2021/04/29 14:01:47;;;;;;;8.20;7.40;;;;;;;;;;5009389;28;20492;-78
2021/04/29 14:04:14;;;;;;;12.47;6.60;;;;;;;;;;5009404;28;20540;-77
2021/04/29 14:06:41;;;;;;;8.53;6.27;;;;;;;;;;5008623;28;20475;-78
2021/04/29 14:09:08;;;;;;;7.90;7.10;;;;;;;;;;5005468;28;20549;-78
2021/04/29 14:11:35;;;;;;;8.13;6.70;;;;;;;;;;5007591;28;20514;-77
2021/04/29 14:14:02;;;;;;;10.70;8.20;;;;;;;;;;5009573;28;20441;-78
2021/04/29 14:16:30;;;;;;;14.03;7.40;;;;;;;;;;5009761;28;20496;-78
2021/04/29 14:18:57;;;;;;;7.60;5.63;;;;;;;;;;5009696;28;20463;-77
2021/04/29 14:21:24;;;;;;;6.80;6.10;;;;;;;;;;4990279;28;20487;-77
2021/04/29 14:23:50;;;;;;;12.23;7.10;;;;;;;;;;4992062;28;20453;-78
2021/04/29 14:26:17;;;;;;;7.80;6.93;;;;;;;;;;4990861;28;20439;-77
2021/04/29 14:28:44;;;;;;;6.50;5.80;;;;;;;;;;4993098;28;20491;-78
2021/04/29 14:31:12;;;;;;;7.83;6.53;;;;;;;;;;5005878;28;20799;-77